Airfield :
LOGIN :

Register | Disclaimer

   EN    FR    IT 

 










Legend :    VFR   Marginal VFR   IFR   Intensive IFR   Very Intensive IFR
Visi :
Ceiling :
>= 8 km
>= 3000ft
5 to 8 km
1000 to 3000 ft
1500m to 5 km
500 to 1000 ft
800 to 1500m
200 to 500 ft
< 800m
< 200 ft
Symbols :   Thunderstorms  Fog  Heavy snow  Heavy precipitations  Wind > 20 kt
SIGMETs :     Misc.  Thunderstorms  Icing  Turbulence  Mountain Waves  Volcanic Ashes







- Airport Elevation : 788 ft
- IATA code : DCM
- Download approach charts


LFCK - Castres-Mazamet

CURRENT METAR :
  • 230530Z AUTO 12024KT CAVOK 13/09 Q0996

EXPIRED METARs :
  • 230500Z AUTO 12023KT CAVOK 13/09 Q0996
  • 230430Z AUTO 12021KT CAVOK 14/09 Q0997
  • 230400Z AUTO 12020KT 9999 FEW027 BKN032 BKN084 14/09 Q0997
  • 230330Z AUTO 12017KT 9999 BKN026 OVC096 13/09 Q0997
  • 230300Z AUTO 11019KT 9999 BKN027 OVC110 13/09 Q0997

TAF TAF LFCK
Valid from the 23 at 06:00 until the 23 at 15:00 UTC


230500Z 2306/2315 12020KT CAVOK
TEMPO 2306/2315 12025G35KT
TEMPO 2306/2310 SCT030TCU
No reported NOTAMs for that airfield.



MET'MAP, your aeronautical weather chart ! - Copyright ORBIFLY December 2007 - Disclaimer

ORBIFLY MET'MAP TEAM :

Programming & Development : Alexandra Zaïnal
Concept & Development : Baudouin d'Aumeries
Co-Development & Prog : Marc-Olivier Méhu
Technical & hardware support : Manuel Goepfert

Contact : metmap@orbifly.com




SOURCES & CREDITS :

   NOAA